createdAt,value
2022-11-03T00:01:35.027Z,93.90
2022-11-03T00:04:01.819Z,94.00
2022-11-03T00:06:28.546Z,93.90
2022-11-03T00:08:58.993Z,94.00
2022-11-03T00:11:25.860Z,94.40
2022-11-03T00:13:52.553Z,94.20
2022-11-03T00:16:19.383Z,94.20
2022-11-03T00:18:46.072Z,94.20
2022-11-03T00:21:14.144Z,94.20
2022-11-03T00:23:43.642Z,94.30
2022-11-03T00:26:17.597Z,94.40
2022-11-03T00:28:46.706Z,94.50
2022-11-03T00:31:15.569Z,94.50
2022-11-03T00:33:45.531Z,94.50
2022-11-03T00:36:14.869Z,94.60
2022-11-03T00:38:42.823Z,94.70
2022-11-03T00:41:10.813Z,94.70
2022-11-03T00:43:40.243Z,94.70
2022-11-03T00:46:08.469Z,94.80
2022-11-03T00:48:38.666Z,94.80
2022-11-03T00:51:16.326Z,94.80
2022-11-03T00:53:42.974Z,94.80
2022-11-03T00:56:20.203Z,94.80
2022-11-03T00:58:50.727Z,95.00
2022-11-03T01:01:25.981Z,95.00
2022-11-03T01:04:15.833Z,95.00
2022-11-03T01:06:49.930Z,95.10
2022-11-03T01:09:23.467Z,95.20
2022-11-03T01:12:00.871Z,95.20
2022-11-03T01:14:35.398Z,95.20
2022-11-03T01:17:07.222Z,95.20
2022-11-03T01:19:33.994Z,95.30
2022-11-03T01:22:00.695Z,95.30
2022-11-03T01:24:27.443Z,95.30
2022-11-03T01:26:54.218Z,95.40
2022-11-03T01:29:22.311Z,95.60
2022-11-03T01:31:49.307Z,95.60
2022-11-03T01:34:20.055Z,95.70
2022-11-03T01:36:49.365Z,95.80
2022-11-03T01:39:17.961Z,95.90
2022-11-03T01:41:47.327Z,95.90
2022-11-03T01:44:13.974Z,95.90
2022-11-03T01:46:52.129Z,95.90
2022-11-03T01:49:41.464Z,95.90
2022-11-03T01:52:13.991Z,96.10
2022-11-03T01:54:44.236Z,96.10
2022-11-03T01:57:15.868Z,96.20
2022-11-03T01:59:44.003Z,96.20
2022-11-03T02:02:11.672Z,96.30
2022-11-03T02:04:42.121Z,96.30
2022-11-03T02:07:40.736Z,96.30
2022-11-03T02:10:09.031Z,96.40
2022-11-03T02:12:36.754Z,96.50
2022-11-03T02:15:08.842Z,96.60
2022-11-03T02:17:37.348Z,96.60
2022-11-03T02:20:17.869Z,96.60
2022-11-03T02:23:05.694Z,96.60
2022-11-03T02:25:35.372Z,96.70
2022-11-03T02:28:04.529Z,96.70
2022-11-03T02:30:46.729Z,96.80
2022-11-03T02:33:27.835Z,96.80
2022-11-03T02:36:23.981Z,96.90
2022-11-03T02:39:00.747Z,97.10
2022-11-03T02:41:31.818Z,97.00
2022-11-03T02:43:59.336Z,97.10
2022-11-03T02:46:28.214Z,97.20
2022-11-03T02:48:57.110Z,97.50
2022-11-03T02:51:25.063Z,97.30
2022-11-03T02:54:19.420Z,97.30
2022-11-03T02:57:15.593Z,97.40
2022-11-03T03:00:00.042Z,97.40
2022-11-03T03:02:38.038Z,97.40
2022-11-03T03:05:08.798Z,97.60
2022-11-03T03:07:41.392Z,97.70
2022-11-03T03:10:14.565Z,97.70
2022-11-03T03:12:48.078Z,97.70
2022-11-03T03:15:16.797Z,97.60
2022-11-03T03:17:52.443Z,97.80
2022-11-03T03:20:28.661Z,97.90
2022-11-03T03:23:11.796Z,97.80
2022-11-03T03:25:47.673Z,97.90
2022-11-03T03:28:24.589Z,98.00
2022-11-03T03:30:54.696Z,97.90
2022-11-03T03:33:22.597Z,98.00
2022-11-03T03:35:53.037Z,98.00
2022-11-03T03:38:27.700Z,98.00
2022-11-03T03:40:57.324Z,98.10
2022-11-03T03:43:26.026Z,98.10
2022-11-03T03:45:59.137Z,98.00
2022-11-03T03:48:28.406Z,98.00
2022-11-03T03:50:55.616Z,98.00
2022-11-03T03:53:22.307Z,98.00
2022-11-03T03:55:51.857Z,98.10
2022-11-03T03:58:23.265Z,98.20
2022-11-03T04:00:49.992Z,98.40
2022-11-03T04:03:21.754Z,98.30
2022-11-03T04:05:48.944Z,98.50
2022-11-03T04:08:17.068Z,98.40
2022-11-03T04:11:06.675Z,98.50
2022-11-03T04:13:52.585Z,98.50
2022-11-03T04:16:37.900Z,98.70
2022-11-03T04:19:23.363Z,98.70
2022-11-03T04:22:08.832Z,98.80
2022-11-03T04:24:37.894Z,98.90
2022-11-03T04:27:19.629Z,99.00
2022-11-03T04:29:46.312Z,99.00
2022-11-03T04:32:16.679Z,99.20
2022-11-03T04:34:46.212Z,99.30
2022-11-03T04:37:13.953Z,99.40
2022-11-03T04:39:41.014Z,99.30
2022-11-03T04:42:23.791Z,99.30
2022-11-03T04:44:50.930Z,99.40
2022-11-03T04:47:18.502Z,99.80
2022-11-03T04:49:50.479Z,99.50
2022-11-03T04:52:22.325Z,99.50
2022-11-03T04:54:53.493Z,99.50
2022-11-03T04:57:20.232Z,99.40
2022-11-03T04:59:53.287Z,99.50
2022-11-03T05:02:21.434Z,99.40
2022-11-03T05:04:48.198Z,99.40
2022-11-03T05:07:36.204Z,99.40
2022-11-03T05:10:07.568Z,99.40
2022-11-03T05:12:36.569Z,99.40
2022-11-03T05:15:11.215Z,99.40
2022-11-03T05:17:37.973Z,99.40
2022-11-03T05:20:06.400Z,99.50
2022-11-03T05:22:37.442Z,99.50
2022-11-03T05:25:31.066Z,99.50
2022-11-03T05:27:57.781Z,99.60
2022-11-03T05:30:24.926Z,99.60
2022-11-03T05:32:52.463Z,99.70
2022-11-03T05:35:23.563Z,99.80
2022-11-03T05:37:51.188Z,99.70
2022-11-03T05:40:26.529Z,99.80
2022-11-03T05:43:01.480Z,99.80
2022-11-03T05:45:42.386Z,99.70
2022-11-03T05:48:36.976Z,99.80
2022-11-03T05:51:21.704Z,99.70
2022-11-03T05:53:53.585Z,99.80
2022-11-03T05:56:24.039Z,99.80
2022-11-03T05:58:57.846Z,99.80
2022-11-03T06:01:28.370Z,99.90
2022-11-03T06:03:56.405Z,99.90
2022-11-03T06:06:32.356Z,99.80
2022-11-03T06:09:03.021Z,99.80
2022-11-03T06:11:35.752Z,99.80
2022-11-03T06:14:13.248Z,99.90
2022-11-03T06:16:47.376Z,99.90
2022-11-03T06:19:22.687Z,99.90
2022-11-03T06:21:51.742Z,99.90
2022-11-03T06:24:21.651Z,99.90
2022-11-03T06:26:52.385Z,99.90
2022-11-03T06:29:23.333Z,99.90
2022-11-03T06:31:54.031Z,99.90
2022-11-03T06:34:36.623Z,99.90
2022-11-03T06:37:21.094Z,99.90
2022-11-03T06:39:49.366Z,99.90
2022-11-03T06:42:19.968Z,99.90
2022-11-03T06:44:48.872Z,99.90
2022-11-03T06:47:25.157Z,99.90
2022-11-03T06:49:57.263Z,99.90
2022-11-03T06:52:27.093Z,99.90
2022-11-03T06:55:18.419Z,99.90
2022-11-03T06:57:47.819Z,99.90
2022-11-03T07:00:32.853Z,99.90
2022-11-03T07:03:01.115Z,99.90
2022-11-03T07:05:32.799Z,99.90
2022-11-03T07:08:10.882Z,99.90
2022-11-03T07:10:37.704Z,99.90
2022-11-03T07:13:15.121Z,99.90
2022-11-03T07:15:43.715Z,99.90
2022-11-03T07:18:22.553Z,99.90
2022-11-03T07:20:50.053Z,99.90
2022-11-03T07:23:24.417Z,99.90
2022-11-03T07:25:54.843Z,99.70
2022-11-03T07:28:26.493Z,99.70
2022-11-03T07:30:55.481Z,99.70
2022-11-03T07:33:26.619Z,99.60
2022-11-03T07:38:46.161Z,99.60
2022-11-03T07:41:18.669Z,99.70
2022-11-03T07:43:55.531Z,99.60
2022-11-03T07:46:23.904Z,99.50
2022-11-03T07:48:55.623Z,99.40
2022-11-03T07:51:24.349Z,99.40
2022-11-03T07:53:55.553Z,99.20
2022-11-03T07:56:27.545Z,99.10
2022-11-03T07:59:07.595Z,98.90
2022-11-03T08:01:50.887Z,98.80
2022-11-03T08:04:20.200Z,98.70
2022-11-03T08:06:48.315Z,98.70
2022-11-03T08:09:15.331Z,98.70
2022-11-03T08:11:42.166Z,98.70
2022-11-03T08:14:09.343Z,98.70
2022-11-03T08:16:39.047Z,98.80
2022-11-03T08:19:06.651Z,98.80
2022-11-03T08:21:33.787Z,98.70
2022-11-03T08:24:02.853Z,98.60
2022-11-03T08:26:34.268Z,98.60
2022-11-03T08:29:00.935Z,98.60
2022-11-03T08:31:30.125Z,98.80
2022-11-03T08:33:56.832Z,98.70
2022-11-03T08:36:23.522Z,98.70
2022-11-03T08:38:50.701Z,98.90
2022-11-03T08:41:17.366Z,98.60
2022-11-03T08:43:46.432Z,98.60
2022-11-03T08:46:18.227Z,98.70
2022-11-03T08:48:46.164Z,98.60
2022-11-03T08:51:14.651Z,98.60
2022-11-03T08:53:44.385Z,98.60
2022-11-03T08:56:15.879Z,98.50
2022-11-03T08:58:44.281Z,98.40
2022-11-03T09:01:11.456Z,98.30
2022-11-03T09:03:38.909Z,98.30
2022-11-03T09:06:08.482Z,98.10
2022-11-03T09:11:22.043Z,98.00
2022-11-03T09:13:48.737Z,97.90
2022-11-03T09:16:17.714Z,97.90
2022-11-03T09:18:45.418Z,97.90
2022-11-03T09:21:13.428Z,98.00
2022-11-03T09:23:40.380Z,97.80
2022-11-03T09:26:09.236Z,97.70
2022-11-03T09:28:35.955Z,97.30
2022-11-03T09:31:07.343Z,97.10
2022-11-03T09:33:37.028Z,96.80
2022-11-03T09:36:03.870Z,96.80
2022-11-03T09:38:30.580Z,96.60
2022-11-03T09:40:59.807Z,96.60
2022-11-03T09:43:28.905Z,96.50
2022-11-03T09:45:58.021Z,96.60
2022-11-03T09:48:27.832Z,96.70
2022-11-03T09:50:57.617Z,96.80
2022-11-03T09:53:24.375Z,96.90
2022-11-03T09:55:54.329Z,96.80
2022-11-03T09:58:23.544Z,96.70
2022-11-03T10:00:52.861Z,96.80
2022-11-03T10:03:20.845Z,96.70
2022-11-03T10:05:52.796Z,96.90
2022-11-03T10:08:26.665Z,96.90
2022-11-03T10:10:54.283Z,96.80
2022-11-03T10:13:31.513Z,96.80
2022-11-03T10:16:05.341Z,96.70
2022-11-03T10:18:37.834Z,96.60
2022-11-03T10:21:26.614Z,96.50
2022-11-03T10:23:53.331Z,96.40
2022-11-03T10:26:20.770Z,96.20
2022-11-03T10:29:00.903Z,96.30
2022-11-03T10:31:35.312Z,96.20
2022-11-03T10:34:02.774Z,96.20
2022-11-03T10:36:31.694Z,96.10
2022-11-03T10:38:58.744Z,96.00
2022-11-03T10:41:30.472Z,96.00
2022-11-03T10:44:03.053Z,96.10
2022-11-03T10:49:20.116Z,96.00
2022-11-03T10:51:49.960Z,96.10
2022-11-03T10:54:18.581Z,96.10
2022-11-03T10:56:46.666Z,96.00
2022-11-03T10:59:17.978Z,96.10
2022-11-03T11:01:45.163Z,95.90
2022-11-03T11:04:20.124Z,96.10
2022-11-03T11:06:47.412Z,96.00
2022-11-03T11:09:25.753Z,96.00
2022-11-03T11:12:22.232Z,96.10
2022-11-03T11:14:57.585Z,96.00
2022-11-03T11:17:42.282Z,96.00
2022-11-03T11:20:26.957Z,96.00
2022-11-03T11:22:53.648Z,95.80
2022-11-03T11:25:20.624Z,95.70
2022-11-03T11:27:58.283Z,95.70
2022-11-03T11:30:31.409Z,95.50
2022-11-03T11:33:00.148Z,95.50
2022-11-03T11:35:26.827Z,95.50
2022-11-03T11:37:57.073Z,95.50
2022-11-03T11:40:23.761Z,95.40
2022-11-03T11:43:02.794Z,95.50
2022-11-03T11:46:07.073Z,95.60
2022-11-03T11:48:37.016Z,95.80
2022-11-03T11:51:08.067Z,95.70
2022-11-03T11:53:40.731Z,95.60
2022-11-03T11:56:16.376Z,95.60
2022-11-03T11:58:50.547Z,95.60
2022-11-03T12:01:30.784Z,95.60
2022-11-03T12:04:00.861Z,95.80
2022-11-03T12:06:40.482Z,95.80
2022-11-03T12:09:22.268Z,95.90
2022-11-03T12:11:50.241Z,95.90
2022-11-03T12:14:31.148Z,96.00
2022-11-03T12:17:01.505Z,96.00
2022-11-03T12:19:40.361Z,95.90
2022-11-03T12:22:11.299Z,95.90
2022-11-03T12:24:47.983Z,95.90
2022-11-03T12:27:39.412Z,95.90
2022-11-03T12:30:13.560Z,95.80
2022-11-03T12:32:43.057Z,96.10
2022-11-03T12:35:13.649Z,95.90
2022-11-03T12:37:42.618Z,95.90
2022-11-03T12:40:11.531Z,95.80
2022-11-03T12:42:38.424Z,95.70
2022-11-03T12:45:05.844Z,95.70
2022-11-03T12:47:34.900Z,95.80
2022-11-03T12:50:01.654Z,95.80
2022-11-03T12:52:28.383Z,95.80
2022-11-03T12:54:55.100Z,96.00
2022-11-03T12:57:21.866Z,96.00
2022-11-03T12:59:52.325Z,96.00
2022-11-03T13:02:21.487Z,96.10
2022-11-03T13:04:48.388Z,96.00
2022-11-03T13:07:17.167Z,95.90
2022-11-03T13:09:46.005Z,96.00
2022-11-03T13:12:31.373Z,95.90
2022-11-03T13:15:04.094Z,95.90
2022-11-03T13:17:40.205Z,96.00
2022-11-03T13:20:14.931Z,95.90
2022-11-03T13:22:41.972Z,95.80
2022-11-03T13:25:09.315Z,95.80
2022-11-03T13:27:36.556Z,95.80
2022-11-03T13:30:05.251Z,95.80
2022-11-03T13:32:31.910Z,95.90
2022-11-03T13:34:58.667Z,95.70
2022-11-03T13:37:25.344Z,95.80
2022-11-03T13:39:52.092Z,95.80
2022-11-03T13:42:18.808Z,95.70
2022-11-03T13:44:45.539Z,95.80
2022-11-03T13:47:12.352Z,95.90
2022-11-03T13:52:25.762Z,96.00
2022-11-03T14:00:31.005Z,96.10
2022-11-03T14:05:47.011Z,96.10
2022-11-03T14:08:13.743Z,96.20
2022-11-03T14:10:40.484Z,96.20
2022-11-03T14:13:07.638Z,96.10
2022-11-03T14:15:34.739Z,96.10
2022-11-03T14:18:01.491Z,96.10
2022-11-03T14:20:30.712Z,96.00
2022-11-03T14:22:57.659Z,96.00
2022-11-03T14:25:24.653Z,96.20
2022-11-03T14:27:51.437Z,96.40
2022-11-03T14:30:18.200Z,96.40
2022-11-03T14:32:45.004Z,96.50
2022-11-03T14:35:11.844Z,96.60
2022-11-03T14:37:40.884Z,96.70
2022-11-03T14:40:28.310Z,97.30
2022-11-03T14:42:57.258Z,97.20
2022-11-03T14:45:24.039Z,97.50
2022-11-03T14:47:50.747Z,97.70
2022-11-03T14:50:17.411Z,97.90
2022-11-03T14:52:44.466Z,98.20
2022-11-03T14:55:11.445Z,98.60
2022-11-03T14:57:38.091Z,99.20
2022-11-03T15:00:05.486Z,99.20
2022-11-03T15:02:34.691Z,99.80
2022-11-03T15:05:01.475Z,99.80
2022-11-03T15:07:30.643Z,99.60
2022-11-03T15:09:58.120Z,99.80
2022-11-03T15:12:24.968Z,99.90
2022-11-03T15:14:56.291Z,99.90
2022-11-03T15:17:25.272Z,99.90
2022-11-03T15:19:52.079Z,99.90
2022-11-03T15:22:19.448Z,99.90
2022-11-03T15:27:32.859Z,99.90
2022-11-03T15:29:59.621Z,99.90
2022-11-03T15:32:26.591Z,99.90
2022-11-03T15:34:53.300Z,99.90
2022-11-03T15:37:20.057Z,99.90
2022-11-03T15:39:46.797Z,99.90
2022-11-03T15:42:13.515Z,99.90
2022-11-03T15:44:42.404Z,99.90
2022-11-03T15:47:09.119Z,99.90
2022-11-03T15:49:36.313Z,99.90
2022-11-03T15:52:03.037Z,99.90
2022-11-03T15:54:29.787Z,99.90
2022-11-03T15:56:56.568Z,99.90
2022-11-03T15:59:23.302Z,99.90
2022-11-03T16:01:50.298Z,99.90
2022-11-03T16:04:17.373Z,99.90
2022-11-03T16:07:06.786Z,99.90
2022-11-03T16:09:30.965Z,99.90
2022-11-03T16:11:57.671Z,99.90
2022-11-03T16:14:24.443Z,99.90
2022-11-03T16:16:51.232Z,99.90
2022-11-03T16:19:17.967Z,99.90
2022-11-03T16:21:47.160Z,99.90
2022-11-03T16:24:13.913Z,99.90
2022-11-03T16:26:40.689Z,99.90
2022-11-03T16:29:07.475Z,99.90
2022-11-03T16:31:34.171Z,99.90
2022-11-03T16:34:01.062Z,99.90
2022-11-03T16:36:30.775Z,99.90
2022-11-03T16:38:59.942Z,99.90
2022-11-03T16:41:26.624Z,99.90
2022-11-03T16:43:53.431Z,99.90
2022-11-03T16:46:20.117Z,99.90
2022-11-03T16:48:51.655Z,99.90
2022-11-03T16:51:18.545Z,99.90
2022-11-03T16:53:45.180Z,99.90
2022-11-03T16:56:12.223Z,99.90
2022-11-03T16:58:38.989Z,99.90
2022-11-03T17:01:06.479Z,99.90
2022-11-03T17:03:33.205Z,99.90
2022-11-03T17:05:59.940Z,99.90
2022-11-03T17:08:51.290Z,99.90
2022-11-03T17:11:13.507Z,99.90
2022-11-03T17:13:42.546Z,99.90
2022-11-03T17:16:09.268Z,99.90
2022-11-03T17:18:36.180Z,99.90
2022-11-03T17:21:05.017Z,99.90
2022-11-03T17:23:31.760Z,99.90
2022-11-03T17:26:00.531Z,99.90
2022-11-03T17:28:27.321Z,99.90
2022-11-03T17:30:54.102Z,99.90
2022-11-03T17:33:20.888Z,99.90
2022-11-03T17:35:47.639Z,99.90
2022-11-03T17:38:18.542Z,99.90
2022-11-03T17:40:47.459Z,99.90
2022-11-03T17:43:25.595Z,99.90
2022-11-03T17:45:52.635Z,99.90
2022-11-03T17:48:19.956Z,99.90
2022-11-03T17:50:49.656Z,99.90
2022-11-03T17:53:29.265Z,99.90
2022-11-03T17:56:27.883Z,99.90
2022-11-03T17:58:47.440Z,99.90
2022-11-03T18:01:22.904Z,99.90
2022-11-03T18:03:49.848Z,99.90
2022-11-03T18:06:19.323Z,99.90
2022-11-03T18:08:51.753Z,99.90
2022-11-03T18:11:47.046Z,99.90
2022-11-03T18:14:14.254Z,99.90
2022-11-03T18:16:42.434Z,99.90
2022-11-03T18:19:17.383Z,99.90
2022-11-03T18:21:44.567Z,99.90
2022-11-03T18:24:13.543Z,99.90
2022-11-03T18:26:40.391Z,99.90
2022-11-03T18:31:43.701Z,99.90
2022-11-03T18:34:22.460Z,99.90
2022-11-03T18:36:49.290Z,99.90
2022-11-03T18:39:22.483Z,99.90
2022-11-03T18:41:49.252Z,99.90
2022-11-03T18:44:24.076Z,99.90
2022-11-03T18:46:52.111Z,99.90
2022-11-03T18:49:22.225Z,99.90
2022-11-03T18:52:02.157Z,99.90
2022-11-03T18:54:31.428Z,99.90
2022-11-03T18:56:58.529Z,99.90
2022-11-03T18:59:32.122Z,99.90
2022-11-03T19:02:02.869Z,99.90
2022-11-03T19:04:31.932Z,99.90
2022-11-03T19:06:58.842Z,99.90
2022-11-03T19:09:26.951Z,99.90
2022-11-03T19:11:56.749Z,99.90
2022-11-03T19:14:28.293Z,99.90
2022-11-03T19:19:44.501Z,99.90
2022-11-03T19:22:16.942Z,99.90
2022-11-03T19:24:46.886Z,99.90
2022-11-03T19:27:20.488Z,99.90
2022-11-03T19:29:48.151Z,99.90
2022-11-03T19:32:19.318Z,99.90
2022-11-03T19:34:48.696Z,99.90
2022-11-03T19:37:15.825Z,99.90
2022-11-03T19:39:42.750Z,99.90
2022-11-03T19:42:27.465Z,99.90
2022-11-03T19:44:58.952Z,99.90
2022-11-03T19:47:34.718Z,99.90
2022-11-03T19:50:04.825Z,99.90
2022-11-03T19:52:32.673Z,99.90
2022-11-03T19:55:05.625Z,99.90
2022-11-03T19:57:32.706Z,99.90
2022-11-03T19:59:59.524Z,99.90
2022-11-03T20:02:28.031Z,99.90
2022-11-03T20:04:55.293Z,99.90
2022-11-03T20:07:28.188Z,99.90
2022-11-03T20:10:01.291Z,99.90
2022-11-03T20:12:30.599Z,99.90
2022-11-03T20:14:57.319Z,99.90
2022-11-03T20:17:24.634Z,99.90
2022-11-03T20:19:53.265Z,99.90
2022-11-03T20:22:29.144Z,99.90
2022-11-03T20:25:03.086Z,99.90
2022-11-03T20:27:30.354Z,99.90
2022-11-03T20:29:57.184Z,99.90
2022-11-03T20:32:26.072Z,99.90
2022-11-03T20:34:55.196Z,99.90
2022-11-03T20:37:21.850Z,99.90
2022-11-03T20:39:48.952Z,99.90
2022-11-03T20:42:22.021Z,99.90
2022-11-03T20:44:48.820Z,99.90
2022-11-03T20:47:17.421Z,99.90
2022-11-03T20:49:45.198Z,99.90
2022-11-03T20:52:16.066Z,99.90
2022-11-03T20:54:43.677Z,99.90
2022-11-03T20:57:14.365Z,99.90
2022-11-03T20:59:41.386Z,99.90
2022-11-03T21:02:14.313Z,99.90
2022-11-03T21:04:42.433Z,99.90
2022-11-03T21:07:14.050Z,99.90
2022-11-03T21:09:43.452Z,99.90
2022-11-03T21:12:15.631Z,99.90
2022-11-03T21:15:05.123Z,99.90
2022-11-03T21:17:50.591Z,99.90
2022-11-03T21:20:17.395Z,99.90
2022-11-03T21:22:53.385Z,99.90
2022-11-03T21:25:23.415Z,99.90
2022-11-03T21:27:53.703Z,99.90
2022-11-03T21:30:23.626Z,99.90
2022-11-03T21:32:50.527Z,99.90
2022-11-03T21:35:19.803Z,99.90
2022-11-03T21:37:46.595Z,99.90
2022-11-03T21:40:13.374Z,99.90
2022-11-03T21:42:58.938Z,99.90
2022-11-03T21:45:26.227Z,99.90
2022-11-03T21:48:13.875Z,99.90
2022-11-03T21:50:42.370Z,99.90
2022-11-03T21:53:09.550Z,99.90
2022-11-03T21:55:37.014Z,99.90
2022-11-03T21:58:07.713Z,99.90
2022-11-03T22:00:35.085Z,99.90
2022-11-03T22:03:01.932Z,99.90
2022-11-03T22:05:29.582Z,99.90
2022-11-03T22:07:56.370Z,99.90
2022-11-03T22:10:23.287Z,99.90
2022-11-03T22:12:52.487Z,99.90
2022-11-03T22:15:37.665Z,99.90
2022-11-03T22:18:05.984Z,99.90
2022-11-03T22:20:54.591Z,99.90
2022-11-03T22:23:44.701Z,99.90
2022-11-03T22:26:33.665Z,99.90
2022-11-03T22:29:26.934Z,99.90
2022-11-03T22:31:53.614Z,99.90
2022-11-03T22:34:38.803Z,99.90
2022-11-03T22:37:05.554Z,99.90
2022-11-03T22:39:53.223Z,99.90
2022-11-03T22:42:38.468Z,99.90
2022-11-03T22:45:26.945Z,99.90
2022-11-03T22:47:57.148Z,99.90
2022-11-03T22:50:27.070Z,99.90
2022-11-03T22:52:53.787Z,99.90
2022-11-03T22:55:20.508Z,99.90
2022-11-03T22:57:47.215Z,99.90
2022-11-03T23:00:14.490Z,99.90
2022-11-03T23:02:41.180Z,99.90
2022-11-03T23:05:08.297Z,99.90
2022-11-03T23:07:40.861Z,99.90
2022-11-03T23:10:10.893Z,99.90
2022-11-03T23:12:37.565Z,99.90
2022-11-03T23:15:23.517Z,99.90
2022-11-03T23:18:13.182Z,99.90
2022-11-03T23:21:00.978Z,99.90
2022-11-03T23:23:46.114Z,99.90
2022-11-03T23:26:13.009Z,99.90
2022-11-03T23:28:39.971Z,99.90
2022-11-03T23:31:09.453Z,99.90
2022-11-03T23:33:36.260Z,99.90
2022-11-03T23:36:10.065Z,99.90
2022-11-03T23:38:37.853Z,99.90
2022-11-03T23:41:16.423Z,99.90
2022-11-03T23:43:44.099Z,99.90
2022-11-03T23:46:34.195Z,99.90
2022-11-03T23:49:03.293Z,99.90
2022-11-03T23:51:31.229Z,99.90
2022-11-03T23:53:59.046Z,99.90
2022-11-03T23:56:46.839Z,99.90
2022-11-03T23:59:16.046Z,99.90
